sensor_id;sensor_type;location;lat;lon;timestamp;temperature;humidity
37874;DHT22;23709;48.078;11.684;2024-01-10T04:47:43;-6.30;99.90
37874;DHT22;23709;48.078;11.684;2024-01-10T04:50:17;-6.30;99.90
37874;DHT22;23709;48.078;11.684;2024-01-10T04:52:49;-6.20;99.90
37874;DHT22;23709;48.078;11.684;2024-01-10T04:55:22;-6.10;99.90
37874;DHT22;23709;48.078;11.684;2024-01-10T04:57:57;-6.10;99.90
37874;DHT22;23709;48.078;11.684;2024-01-10T05:00:30;-5.90;99.90
37874;DHT22;23709;48.078;11.684;2024-01-10T05:03:02;-5.70;99.90
37874;DHT22;23709;48.078;11.684;2024-01-10T05:05:35;-5.70;99.90
37874;DHT22;23709;48.078;11.684;2024-01-10T05:08:07;-5.70;99.90
37874;DHT22;23709;48.078;11.684;2024-01-10T05:10:41;-5.60;99.90
37874;DHT22;23709;48.078;11.684;2024-01-10T05:13:13;-5.60;99.90
37874;DHT22;23709;48.078;11.684;2024-01-10T05:15:46;-5.60;99.90
37874;DHT22;23709;48.078;11.684;2024-01-10T05:18:21;-5.50;99.90
37874;DHT22;23709;48.078;11.684;2024-01-10T05:20:53;-5.40;99.90
37874;DHT22;23709;48.078;11.684;2024-01-10T05:23:25;-5.40;99.90
37874;DHT22;23709;48.078;11.684;2024-01-10T05:25:58;-5.50;99.90
37874;DHT22;23709;48.078;11.684;2024-01-10T05:28:32;-5.50;99.90
37874;DHT22;23709;48.078;11.684;2024-01-10T05:31:05;-5.40;99.90
37874;DHT22;23709;48.078;11.684;2024-01-10T05:33:38;-5.40;99.90
37874;DHT22;23709;48.078;11.684;2024-01-10T05:36:10;-5.40;99.90
37874;DHT22;23709;48.078;11.684;2024-01-10T05:38:43;-5.30;99.90
37874;DHT22;23709;48.078;11.684;2024-01-10T05:41:16;-5.40;99.90
37874;DHT22;23709;48.078;11.684;2024-01-10T05:43:49;-5.40;99.90
37874;DHT22;23709;48.078;11.684;2024-01-10T05:46:22;-5.40;99.90
37874;DHT22;23709;48.078;11.684;2024-01-10T05:48:55;-5.40;99.90
37874;DHT22;23709;48.078;11.684;2024-01-10T05:51:28;-5.50;99.90
37874;DHT22;23709;48.078;11.684;2024-01-10T05:54:01;-5.50;99.90
37874;DHT22;23709;48.078;11.684;2024-01-10T05:56:33;-5.50;99.90
37874;DHT22;23709;48.078;11.684;2024-01-10T05:59:05;-5.50;99.90
37874;DHT22;23709;48.078;11.684;2024-01-10T06:01:38;-5.50;99.90
37874;DHT22;23709;48.078;11.684;2024-01-10T06:04:11;-5.50;99.90
37874;DHT22;23709;48.078;11.684;2024-01-10T06:06:44;-5.50;99.90
37874;DHT22;23709;48.078;11.684;2024-01-10T06:09:18;-5.40;99.90
37874;DHT22;23709;48.078;11.684;2024-01-10T06:11:54;-5.40;99.90
37874;DHT22;23709;48.078;11.684;2024-01-10T06:14:26;-5.40;99.90
37874;DHT22;23709;48.078;11.684;2024-01-10T06:16:59;-5.40;99.90
37874;DHT22;23709;48.078;11.684;2024-01-10T06:19:33;-5.50;99.90
37874;DHT22;23709;48.078;11.684;2024-01-10T06:22:05;-5.50;99.90
37874;DHT22;23709;48.078;11.684;2024-01-10T06:24:38;-5.50;99.90
37874;DHT22;23709;48.078;11.684;2024-01-10T06:27:10;-5.50;99.90
37874;DHT22;23709;48.078;11.684;2024-01-10T06:29:43;-5.50;99.90
37874;DHT22;23709;48.078;11.684;2024-01-10T06:32:15;-5.60;99.90
37874;DHT22;23709;48.078;11.684;2024-01-10T06:34:47;-5.60;99.90
37874;DHT22;23709;48.078;11.684;2024-01-10T06:37:20;-5.60;99.90
37874;DHT22;23709;48.078;11.684;2024-01-10T14:52:30;-3.90;99.90
37874;DHT22;23709;48.078;11.684;2024-01-10T14:55:02;-3.90;99.90
37874;DHT22;23709;48.078;11.684;2024-01-10T14:57:37;-3.90;99.90
37874;DHT22;23709;48.078;11.684;2024-01-10T15:00:09;-3.80;99.90
37874;DHT22;23709;48.078;11.684;2024-01-10T15:02:42;-3.80;99.90
37874;DHT22;23709;48.078;11.684;2024-01-10T15:05:15;-3.70;99.90
37874;DHT22;23709;48.078;11.684;2024-01-10T15:07:48;-3.70;99.90
37874;DHT22;23709;48.078;11.684;2024-01-10T15:10:20;-3.80;99.90
37874;DHT22;23709;48.078;11.684;2024-01-10T15:12:53;-3.70;99.90
37874;DHT22;23709;48.078;11.684;2024-01-10T15:15:26;-3.60;99.90
37874;DHT22;23709;48.078;11.684;2024-01-10T15:17:58;-3.50;99.90
37874;DHT22;23709;48.078;11.684;2024-01-10T15:20:30;-3.50;99.90
37874;DHT22;23709;48.078;11.684;2024-01-10T15:23:02;-3.50;99.90
37874;DHT22;23709;48.078;11.684;2024-01-10T15:25:36;-3.40;99.90
37874;DHT22;23709;48.078;11.684;2024-01-10T15:28:08;-3.40;99.90
37874;DHT22;23709;48.078;11.684;2024-01-10T15:30:41;-3.40;99.90
37874;DHT22;23709;48.078;11.684;2024-01-10T15:33:19;-3.40;99.90
37874;DHT22;23709;48.078;11.684;2024-01-10T15:35:52;-3.40;99.90
37874;DHT22;23709;48.078;11.684;2024-01-10T15:38:27;-3.30;99.90
37874;DHT22;23709;48.078;11.684;2024-01-10T15:40:59;-3.40;99.90
37874;DHT22;23709;48.078;11.684;2024-01-10T15:43:33;-3.30;99.90
37874;DHT22;23709;48.078;11.684;2024-01-10T15:46:06;-3.30;99.90
37874;DHT22;23709;48.078;11.684;2024-01-10T15:48:38;-3.30;99.90
37874;DHT22;23709;48.078;11.684;2024-01-10T15:51:11;-3.30;99.90
37874;DHT22;23709;48.078;11.684;2024-01-10T15:53:44;-3.30;99.90
37874;DHT22;23709;48.078;11.684;2024-01-10T15:56:16;-3.30;99.90
37874;DHT22;23709;48.078;11.684;2024-01-10T15:58:57;-3.30;99.90
37874;DHT22;23709;48.078;11.684;2024-01-10T16:01:30;-3.30;99.90
37874;DHT22;23709;48.078;11.684;2024-01-10T16:04:03;-3.30;99.90
37874;DHT22;23709;48.078;11.684;2024-01-10T16:06:36;-3.20;99.90
37874;DHT22;23709;48.078;11.684;2024-01-10T16:09:10;-3.20;99.90
37874;DHT22;23709;48.078;11.684;2024-01-10T16:11:44;-3.20;99.90
37874;DHT22;23709;48.078;11.684;2024-01-10T16:14:17;-3.30;99.90
37874;DHT22;23709;48.078;11.684;2024-01-10T16:16:50;-3.20;99.90
37874;DHT22;23709;48.078;11.684;2024-01-10T16:19:23;-3.20;99.90
37874;DHT22;23709;48.078;11.684;2024-01-10T16:21:56;-3.30;99.90
37874;DHT22;23709;48.078;11.684;2024-01-10T16:24:28;-3.40;99.90
37874;DHT22;23709;48.078;11.684;2024-01-10T16:27:01;-3.50;99.90
37874;DHT22;23709;48.078;11.684;2024-01-10T16:29:34;-3.50;99.90
37874;DHT22;23709;48.078;11.684;2024-01-10T16:32:07;-3.40;99.90
37874;DHT22;23709;48.078;11.684;2024-01-10T16:34:40;-3.40;99.90
37874;DHT22;23709;48.078;11.684;2024-01-10T16:37:14;-3.30;99.90
37874;DHT22;23709;48.078;11.684;2024-01-10T16:39:47;-3.30;99.90
37874;DHT22;23709;48.078;11.684;2024-01-10T16:42:19;-3.30;99.90
37874;DHT22;23709;48.078;11.684;2024-01-10T16:44:52;-3.40;99.90
37874;DHT22;23709;48.078;11.684;2024-01-10T16:47:24;-3.40;99.90
37874;DHT22;23709;48.078;11.684;2024-01-10T16:49:57;-3.40;99.90
37874;DHT22;23709;48.078;11.684;2024-01-10T16:52:30;-3.40;99.90
37874;DHT22;23709;48.078;11.684;2024-01-10T16:55:02;-3.20;99.90
37874;DHT22;23709;48.078;11.684;2024-01-10T16:57:35;-3.30;99.90
37874;DHT22;23709;48.078;11.684;2024-01-10T17:00:08;-3.30;99.90
37874;DHT22;23709;48.078;11.684;2024-01-10T17:02:42;-3.30;99.90
37874;DHT22;23709;48.078;11.684;2024-01-10T17:05:14;-3.40;99.90
37874;DHT22;23709;48.078;11.684;2024-01-10T17:07:47;-3.40;99.90
37874;DHT22;23709;48.078;11.684;2024-01-10T17:10:19;-3.40;99.90
37874;DHT22;23709;48.078;11.684;2024-01-10T17:12:53;-3.40;99.90
37874;DHT22;23709;48.078;11.684;2024-01-10T17:15:26;-3.40;99.90
37874;DHT22;23709;48.078;11.684;2024-01-10T17:18:00;-3.40;99.90
37874;DHT22;23709;48.078;11.684;2024-01-10T17:20:33;-3.40;99.90
37874;DHT22;23709;48.078;11.684;2024-01-10T17:23:06;-3.40;99.90
37874;DHT22;23709;48.078;11.684;2024-01-10T17:25:38;-3.40;99.90
37874;DHT22;23709;48.078;11.684;2024-01-10T17:28:11;-3.40;99.90
37874;DHT22;23709;48.078;11.684;2024-01-10T17:30:44;-3.40;99.90
37874;DHT22;23709;48.078;11.684;2024-01-10T17:33:17;-3.50;99.90
37874;DHT22;23709;48.078;11.684;2024-01-10T17:35:53;-3.60;99.90
37874;DHT22;23709;48.078;11.684;2024-01-10T17:38:26;-3.60;99.90
37874;DHT22;23709;48.078;11.684;2024-01-10T17:40:58;-3.60;99.90
37874;DHT22;23709;48.078;11.684;2024-01-10T17:43:31;-3.70;99.90
37874;DHT22;23709;48.078;11.684;2024-01-10T17:46:03;-3.60;99.90
37874;DHT22;23709;48.078;11.684;2024-01-10T17:48:35;-3.60;99.90
37874;DHT22;23709;48.078;11.684;2024-01-10T17:51:08;-3.60;99.90
37874;DHT22;23709;48.078;11.684;2024-01-10T17:53:40;-3.50;99.90
37874;DHT22;23709;48.078;11.684;2024-01-10T17:56:12;-3.60;99.90
37874;DHT22;23709;48.078;11.684;2024-01-10T17:58:45;-3.60;99.90
37874;DHT22;23709;48.078;11.684;2024-01-10T18:01:17;-3.60;99.90
37874;DHT22;23709;48.078;11.684;2024-01-10T18:03:54;-3.60;99.90
37874;DHT22;23709;48.078;11.684;2024-01-10T18:06:41;-3.70;99.90
37874;DHT22;23709;48.078;11.684;2024-01-10T18:09:14;-3.70;99.90
37874;DHT22;23709;48.078;11.684;2024-01-10T18:11:46;-3.70;99.90
37874;DHT22;23709;48.078;11.684;2024-01-10T18:14:18;-3.70;99.90
37874;DHT22;23709;48.078;11.684;2024-01-10T18:16:51;-3.70;99.90
37874;DHT22;23709;48.078;11.684;2024-01-10T18:19:23;-3.70;99.90
37874;DHT22;23709;48.078;11.684;2024-01-10T18:21:56;-3.70;99.90
37874;DHT22;23709;48.078;11.684;2024-01-10T18:24:29;-3.70;99.90
37874;DHT22;23709;48.078;11.684;2024-01-10T18:27:02;-3.60;99.90
37874;DHT22;23709;48.078;11.684;2024-01-10T18:29:34;-3.60;99.90
37874;DHT22;23709;48.078;11.684;2024-01-10T18:32:06;-3.70;99.90
37874;DHT22;23709;48.078;11.684;2024-01-10T18:34:39;-3.60;99.90
37874;DHT22;23709;48.078;11.684;2024-01-10T18:37:12;-3.70;99.90
37874;DHT22;23709;48.078;11.684;2024-01-10T18:39:44;-3.60;99.90
37874;DHT22;23709;48.078;11.684;2024-01-10T18:42:17;-3.60;99.90
37874;DHT22;23709;48.078;11.684;2024-01-10T18:44:49;-3.60;99.90
37874;DHT22;23709;48.078;11.684;2024-01-10T18:47:22;-3.60;99.90
37874;DHT22;23709;48.078;11.684;2024-01-10T18:49:57;-3.70;99.90
37874;DHT22;23709;48.078;11.684;2024-01-10T18:52:30;-3.70;99.90
37874;DHT22;23709;48.078;11.684;2024-01-10T18:55:03;-3.60;99.90
37874;DHT22;23709;48.078;11.684;2024-01-10T18:57:36;-3.60;99.90
37874;DHT22;23709;48.078;11.684;2024-01-10T19:00:09;-3.60;99.90
37874;DHT22;23709;48.078;11.684;2024-01-10T19:02:44;-3.60;99.90
37874;DHT22;23709;48.078;11.684;2024-01-10T19:05:16;-3.60;99.90
37874;DHT22;23709;48.078;11.684;2024-01-10T19:07:49;-3.50;99.90
37874;DHT22;23709;48.078;11.684;2024-01-10T19:10:25;-3.60;99.90
37874;DHT22;23709;48.078;11.684;2024-01-10T19:12:57;-3.60;99.90
37874;DHT22;23709;48.078;11.684;2024-01-10T19:15:30;-3.60;99.90
37874;DHT22;23709;48.078;11.684;2024-01-10T19:18:04;-3.60;99.90
37874;DHT22;23709;48.078;11.684;2024-01-10T19:20:37;-3.60;99.90
37874;DHT22;23709;48.078;11.684;2024-01-10T19:23:09;-3.70;99.90
37874;DHT22;23709;48.078;11.684;2024-01-10T19:25:42;-3.70;99.90
37874;DHT22;23709;48.078;11.684;2024-01-10T19:28:15;-3.70;99.90
37874;DHT22;23709;48.078;11.684;2024-01-10T19:30:47;-3.70;99.90
37874;DHT22;23709;48.078;11.684;2024-01-10T19:33:20;-3.80;99.90
37874;DHT22;23709;48.078;11.684;2024-01-10T19:35:52;-3.80;99.90
37874;DHT22;23709;48.078;11.684;2024-01-10T19:38:25;-3.80;99.90
37874;DHT22;23709;48.078;11.684;2024-01-10T19:40:58;-3.80;99.90
37874;DHT22;23709;48.078;11.684;2024-01-10T19:43:31;-3.80;99.90
37874;DHT22;23709;48.078;11.684;2024-01-10T19:46:04;-3.80;99.90
37874;DHT22;23709;48.078;11.684;2024-01-10T19:48:36;-3.90;99.90
37874;DHT22;23709;48.078;11.684;2024-01-10T19:51:09;-4.00;99.90
37874;DHT22;23709;48.078;11.684;2024-01-10T19:53:41;-3.90;99.90
37874;DHT22;23709;48.078;11.684;2024-01-10T19:56:21;-3.80;99.90
37874;DHT22;23709;48.078;11.684;2024-01-10T19:58:53;-3.80;99.90
37874;DHT22;23709;48.078;11.684;2024-01-10T20:01:27;-3.80;99.90
37874;DHT22;23709;48.078;11.684;2024-01-10T20:04:00;-4.00;99.90
37874;DHT22;23709;48.078;11.684;2024-01-10T20:06:32;-4.00;99.90
37874;DHT22;23709;48.078;11.684;2024-01-10T20:09:04;-4.10;99.90
37874;DHT22;23709;48.078;11.684;2024-01-10T20:11:38;-4.10;99.90
37874;DHT22;23709;48.078;11.684;2024-01-10T20:14:11;-4.20;99.90
37874;DHT22;23709;48.078;11.684;2024-01-10T20:16:43;-4.20;99.90
37874;DHT22;23709;48.078;11.684;2024-01-10T20:19:15;-4.10;99.90
37874;DHT22;23709;48.078;11.684;2024-01-10T20:21:48;-4.00;99.90
37874;DHT22;23709;48.078;11.684;2024-01-10T20:24:21;-3.90;99.90
37874;DHT22;23709;48.078;11.684;2024-01-10T20:26:53;-3.90;99.90
37874;DHT22;23709;48.078;11.684;2024-01-10T20:29:26;-3.90;99.90
37874;DHT22;23709;48.078;11.684;2024-01-10T20:32:03;-3.90;99.90
37874;DHT22;23709;48.078;11.684;2024-01-10T20:34:38;-3.80;99.90
37874;DHT22;23709;48.078;11.684;2024-01-10T20:37:10;-3.80;99.90
